SBPB/PHB METAR and TAF weather

Enter ICAO airport designator
Station Type Date Time Source
SBPB METAR 2024/02/20 21:45 UTC NOAA

SBPB 202145Z 34005KT 4000 RA SCT011 OVC015 26/25 Q1010


Station Type Date Time Source
SBPB Decoded METAR 2024/02/20 21:45 UTC NOAA

Parnaiba Aeroporto , Brazil (SBPB) 02-55S 041-45W
Feb 20, 2024 - 04:45 PM EST / 2024.02.20 2145 UTC
Wind: from the NNW (340 degrees) at 6 MPH (5 KT):0
Visibility: 2 mile(s):0
Sky conditions: overcast
Weather: rain
Temperature: 78 F (26 C)
Dew Point: 77 F (25 C)
Relative Humidity: 94%
Pressure (altimeter): 29.83 in. Hg (1010 hPa)
ob: SBPB 202145Z 34005KT 4000 RA SCT011 OVC015 26/25 Q1010
cycle: 22

Station Type Date Time Source
SBPB TAF 2024/02/20 18:42 UTC NOAA

TAF SBPB 201500Z 2018/2106 11005KT 9999 SCT020 TX28/2018Z TN24/2106Z
TEMPO 2018/2021 12005KT 4000 TSRA BKN015 FEW030CB
BECMG 2100/2102 21010KT FEW020
RMK PGY

Example: see airport list